sensor_id;sensor_type;location;lat;lon;timestamp;pressure;altitude;pressure_sealevel;temperature;humidity
6853;BME280;3465;42.144;24.722;2023-02-12T00:02:08;142998.53;;;0.26;61.92
6853;BME280;3465;42.144;24.722;2023-02-12T00:04:34;142977.50;;;0.18;62.32
6853;BME280;3465;42.144;24.722;2023-02-12T00:06:59;142973.78;;;0.16;62.30
6853;BME280;3465;42.144;24.722;2023-02-12T00:09:25;142967.53;;;0.14;62.42
6853;BME280;3465;42.144;24.722;2023-02-12T00:11:50;142960.09;;;0.11;62.61
6853;BME280;3465;42.144;24.722;2023-02-12T00:14:16;142939.00;;;0.02;62.56
6853;BME280;3465;42.144;24.722;2023-02-12T00:16:42;142942.72;;;0.03;62.53
6853;BME280;3465;42.144;24.722;2023-02-12T00:19:08;142929.13;;;-0.02;62.28
6853;BME280;3465;42.144;24.722;2023-02-12T00:21:34;142906.75;;;-0.11;61.50
6853;BME280;3465;42.144;24.722;2023-02-12T00:24:00;142943.97;;;0.04;60.30
6853;BME280;3465;42.144;24.722;2023-02-12T00:26:26;142915.44;;;-0.08;60.86
6853;BME280;3465;42.144;24.722;2023-02-12T00:28:52;142942.72;;;0.03;61.09
6853;BME280;3465;42.144;24.722;2023-02-12T00:31:20;142935.28;;;0.00;61.15
6853;BME280;3465;42.144;24.722;2023-02-12T00:33:46;142874.56;;;-0.24;61.58
6853;BME280;3465;42.144;24.722;2023-02-12T00:36:17;142900.59;;;-0.14;61.13
6853;BME280;3465;42.144;24.722;2023-02-12T00:38:43;142927.84;;;-0.03;60.70
6853;BME280;3465;42.144;24.722;2023-02-12T00:41:08;142921.69;;;-0.05;60.64
6853;BME280;3465;42.144;24.722;2023-02-12T00:43:34;142916.72;;;-0.07;61.15
6853;BME280;3465;42.144;24.722;2023-02-12T00:46:00;142908.03;;;-0.11;61.39
6853;BME280;3465;42.144;24.722;2023-02-12T00:48:25;142915.44;;;-0.08;61.46
6853;BME280;3465;42.144;24.722;2023-02-12T00:50:50;142941.53;;;0.03;60.60
6853;BME280;3465;42.144;24.722;2023-02-12T00:53:16;142961.38;;;0.11;59.84
6853;BME280;3465;42.144;24.722;2023-02-12T00:55:42;142943.97;;;0.04;58.86
6853;BME280;3465;42.144;24.722;2023-02-12T00:58:08;143023.38;;;0.36;57.33
6853;BME280;3465;42.144;24.722;2023-02-12T01:00:34;143076.72;;;0.58;55.58
6853;BME280;3465;42.144;24.722;2023-02-12T01:02:59;143089.09;;;0.63;54.96
6853;BME280;3465;42.144;24.722;2023-02-12T01:05:25;143085.38;;;0.61;55.12
6853;BME280;3465;42.144;24.722;2023-02-12T01:07:52;143169.78;;;0.95;53.50
6853;BME280;3465;42.144;24.722;2023-02-12T01:10:18;143198.31;;;1.07;52.89
6853;BME280;3465;42.144;24.722;2023-02-12T01:12:45;143200.78;;;1.08;52.57
6853;BME280;3465;42.144;24.722;2023-02-12T01:15:11;143205.78;;;1.10;52.16
6853;BME280;3465;42.144;24.722;2023-02-12T01:17:37;143224.38;;;1.17;52.33
6853;BME280;3465;42.144;24.722;2023-02-12T01:20:06;143199.59;;;1.07;52.48
6853;BME280;3465;42.144;24.722;2023-02-12T01:22:35;143216.94;;;1.14;52.78
6853;BME280;3465;42.144;24.722;2023-02-12T01:25:02;143229.34;;;1.19;52.54
6853;BME280;3465;42.144;24.722;2023-02-12T01:27:27;143216.94;;;1.14;52.59
6853;BME280;3465;42.144;24.722;2023-02-12T01:29:53;143189.63;;;1.03;52.63
6853;BME280;3465;42.144;24.722;2023-02-12T01:32:18;143234.31;;;1.21;52.27
6853;BME280;3465;42.144;24.722;2023-02-12T01:34:43;143241.78;;;1.24;51.85
6853;BME280;3465;42.144;24.722;2023-02-12T01:37:09;143244.25;;;1.25;51.43
6853;BME280;3465;42.144;24.722;2023-02-12T01:39:34;143236.78;;;1.22;51.57
6853;BME280;3465;42.144;24.722;2023-02-12T01:42:00;143252.94;;;1.29;51.33
6853;BME280;3465;42.144;24.722;2023-02-12T01:44:30;143216.94;;;1.14;51.11
6853;BME280;3465;42.144;24.722;2023-02-12T01:47:04;143269.09;;;1.35;50.75
6853;BME280;3465;42.144;24.722;2023-02-12T01:52:03;143285.22;;;1.42;50.06
6853;BME280;3465;42.144;24.722;2023-02-12T01:54:33;143282.75;;;1.41;49.83
6853;BME280;3465;42.144;24.722;2023-02-12T01:57:02;143272.81;;;1.37;49.97
6853;BME280;3465;42.144;24.722;2023-02-12T01:59:29;143283.97;;;1.41;49.19
6853;BME280;3465;42.144;24.722;2023-02-12T02:01:55;143338.66;;;1.64;48.74
6853;BME280;3465;42.144;24.722;2023-02-12T02:04:26;143351.06;;;1.69;48.55
6853;BME280;3465;42.144;24.722;2023-02-12T02:06:59;143348.56;;;1.68;48.54
6853;BME280;3465;42.144;24.722;2023-02-12T02:09:26;143341.13;;;1.65;48.18
6853;BME280;3465;42.144;24.722;2023-02-12T02:11:52;143317.53;;;1.55;48.83
6853;BME280;3465;42.144;24.722;2023-02-12T02:14:37;143293.94;;;1.45;47.86
6853;BME280;3465;42.144;24.722;2023-02-12T02:17:15;143281.50;;;1.40;48.61
6853;BME280;3465;42.144;24.722;2023-02-12T02:20:10;143256.66;;;1.30;48.89
6853;BME280;3465;42.144;24.722;2023-02-12T02:31:03;143193.34;;;1.05;48.91
6853;BME280;3465;42.144;24.722;2023-02-12T02:33:33;143277.78;;;1.39;48.28
6853;BME280;3465;42.144;24.722;2023-02-12T02:36:14;143282.75;;;1.41;48.26
6853;BME280;3465;42.144;24.722;2023-02-12T02:38:50;143274.06;;;1.37;48.23
6853;BME280;3465;42.144;24.722;2023-02-12T02:44:14;143266.63;;;1.34;48.48
6853;BME280;3465;42.144;24.722;2023-02-12T02:46:46;143303.84;;;1.49;48.80
6853;BME280;3465;42.144;24.722;2023-02-12T02:49:23;143323.72;;;1.58;48.49
6853;BME280;3465;42.144;24.722;2023-02-12T02:51:54;143321.25;;;1.57;48.43
6853;BME280;3465;42.144;24.722;2023-02-12T02:54:29;143338.66;;;1.64;48.42
6853;BME280;3465;42.144;24.722;2023-02-12T02:57:02;143291.47;;;1.44;49.17
6853;BME280;3465;42.144;24.722;2023-02-12T02:59:34;143213.22;;;1.13;49.19
6853;BME280;3465;42.144;24.722;2023-02-12T03:02:16;143307.56;;;1.51;49.23
6853;BME280;3465;42.144;24.722;2023-02-12T03:04:46;143301.38;;;1.48;49.47
6853;BME280;3465;42.144;24.722;2023-02-12T03:07:33;143291.47;;;1.44;49.35
6853;BME280;3465;42.144;24.722;2023-02-12T03:10:11;143321.25;;;1.57;48.89
6853;BME280;3465;42.144;24.722;2023-02-12T03:12:57;143307.56;;;1.51;48.95
6853;BME280;3465;42.144;24.722;2023-02-12T03:18:13;143302.63;;;1.49;48.72
6853;BME280;3465;42.144;24.722;2023-02-12T03:20:50;143306.34;;;1.51;48.54
6853;BME280;3465;42.144;24.722;2023-02-12T03:23:47;143297.66;;;1.47;48.83
6853;BME280;3465;42.144;24.722;2023-02-12T03:26:27;143311.34;;;1.53;48.52
6853;BME280;3465;42.144;24.722;2023-02-12T03:28:55;143291.47;;;1.44;48.91
6853;BME280;3465;42.144;24.722;2023-02-12T03:39:35;143308.81;;;1.52;47.90
6853;BME280;3465;42.144;24.722;2023-02-12T03:45:12;143267.81;;;1.35;48.42
6853;BME280;3465;42.144;24.722;2023-02-12T03:53:01;143291.47;;;1.44;48.15
6853;BME280;3465;42.144;24.722;2023-02-12T03:55:27;143313.78;;;1.54;48.24
6853;BME280;3465;42.144;24.722;2023-02-12T03:57:57;143343.56;;;1.66;48.42
6853;BME280;3465;42.144;24.722;2023-02-12T04:00:25;143364.72;;;1.74;48.52
6853;BME280;3465;42.144;24.722;2023-02-12T04:02:52;143375.88;;;1.79;48.77
6853;BME280;3465;42.144;24.722;2023-02-12T04:05:23;143365.97;;;1.75;48.49
6853;BME280;3465;42.144;24.722;2023-02-12T04:07:50;143397.00;;;1.87;48.64
6853;BME280;3465;42.144;24.722;2023-02-12T04:10:16;143372.16;;;1.77;48.65
6853;BME280;3465;42.144;24.722;2023-02-12T04:12:51;143420.63;;;1.97;48.61
6853;BME280;3465;42.144;24.722;2023-02-12T04:18:10;143452.94;;;2.10;47.78
6853;BME280;3465;42.144;24.722;2023-02-12T04:24:17;143446.69;;;2.07;46.96
6853;BME280;3465;42.144;24.722;2023-02-12T04:32:06;143445.47;;;2.07;47.40
6853;BME280;3465;42.144;24.722;2023-02-12T04:34:48;143456.66;;;2.11;47.12
6853;BME280;3465;42.144;24.722;2023-02-12T04:37:21;143459.13;;;2.12;47.09
6853;BME280;3465;42.144;24.722;2023-02-12T04:39:48;143477.78;;;2.20;46.85
6853;BME280;3465;42.144;24.722;2023-02-12T04:42:15;143457.91;;;2.12;46.76
6853;BME280;3465;42.144;24.722;2023-02-12T04:44:42;143503.88;;;2.30;46.45
6853;BME280;3465;42.144;24.722;2023-02-12T04:47:13;143490.22;;;2.25;46.51
6853;BME280;3465;42.144;24.722;2023-02-12T04:49:38;143531.19;;;2.41;46.46
6853;BME280;3465;42.144;24.722;2023-02-12T04:52:04;143536.19;;;2.43;46.85
6853;BME280;3465;42.144;24.722;2023-02-12T04:54:29;143528.72;;;2.40;47.03
6853;BME280;3465;42.144;24.722;2023-02-12T04:56:55;143526.22;;;2.39;47.37
6853;BME280;3465;42.144;24.722;2023-02-12T04:59:21;143530.00;;;2.41;47.38
6853;BME280;3465;42.144;24.722;2023-02-12T05:01:46;143554.81;;;2.51;47.32
6853;BME280;3465;42.144;24.722;2023-02-12T05:04:14;143531.19;;;2.41;47.87
6853;BME280;3465;42.144;24.722;2023-02-12T05:06:40;143539.91;;;2.45;47.25
6853;BME280;3465;42.144;24.722;2023-02-12T05:09:06;143532.47;;;2.42;47.66
6853;BME280;3465;42.144;24.722;2023-02-12T05:11:32;143523.75;;;2.38;47.45
6853;BME280;3465;42.144;24.722;2023-02-12T05:13:57;143511.31;;;2.33;48.15
6853;BME280;3465;42.144;24.722;2023-02-12T05:16:23;143500.13;;;2.29;48.38
6853;BME280;3465;42.144;24.722;2023-02-12T05:18:49;143518.75;;;2.36;48.41
6853;BME280;3465;42.144;24.722;2023-02-12T05:21:15;143497.66;;;2.28;48.19
6853;BME280;3465;42.144;24.722;2023-02-12T05:23:41;143492.69;;;2.26;48.49
6853;BME280;3465;42.144;24.722;2023-02-12T05:26:13;143547.38;;;2.48;48.72
6853;BME280;3465;42.144;24.722;2023-02-12T05:28:39;143577.22;;;2.60;49.07
6853;BME280;3465;42.144;24.722;2023-02-12T05:31:06;143574.69;;;2.59;49.58
6853;BME280;3465;42.144;24.722;2023-02-12T05:33:32;143573.50;;;2.58;49.67
6853;BME280;3465;42.144;24.722;2023-02-12T05:36:06;143561.06;;;2.53;49.77
6853;BME280;3465;42.144;24.722;2023-02-12T05:38:32;143569.78;;;2.57;49.71
6853;BME280;3465;42.144;24.722;2023-02-12T05:41:21;143570.97;;;2.57;49.42
6853;BME280;3465;42.144;24.722;2023-02-12T05:43:48;143542.38;;;2.46;49.56
6853;BME280;3465;42.144;24.722;2023-02-12T05:46:14;143584.69;;;2.63;49.02
6853;BME280;3465;42.144;24.722;2023-02-12T05:48:40;143600.84;;;2.69;48.53
6853;BME280;3465;42.144;24.722;2023-02-12T05:51:14;143634.38;;;2.83;47.77
6853;BME280;3465;42.144;24.722;2023-02-12T05:53:40;143634.38;;;2.83;49.16
6853;BME280;3465;42.144;24.722;2023-02-12T05:58:38;143704.03;;;3.11;47.97
6853;BME280;3465;42.144;24.722;2023-02-12T06:01:13;143692.84;;;3.07;47.26
6853;BME280;3465;42.144;24.722;2023-02-12T06:03:39;143760.03;;;3.34;46.71
6853;BME280;3465;42.144;24.722;2023-02-12T06:06:04;143750.03;;;3.30;46.77
6853;BME280;3465;42.144;24.722;2023-02-12T06:08:30;143746.31;;;3.28;46.82
6853;BME280;3465;42.144;24.722;2023-02-12T06:10:59;143769.94;;;3.38;46.79
6853;BME280;3465;42.144;24.722;2023-02-12T06:13:25;143786.13;;;3.44;47.19
6853;BME280;3465;42.144;24.722;2023-02-12T06:15:50;143803.56;;;3.51;47.40
6853;BME280;3465;42.144;24.722;2023-02-12T06:18:15;143839.66;;;3.66;46.80
6853;BME280;3465;42.144;24.722;2023-02-12T06:20:41;143848.38;;;3.69;46.79
6853;BME280;3465;42.144;24.722;2023-02-12T06:23:06;143848.38;;;3.69;47.04
6853;BME280;3465;42.144;24.722;2023-02-12T06:25:31;143865.75;;;3.76;47.13
6853;BME280;3465;42.144;24.722;2023-02-12T06:27:57;143883.22;;;3.83;46.94
6853;BME280;3465;42.144;24.722;2023-02-12T06:30:22;143867.03;;;3.77;47.18
6853;BME280;3465;42.144;24.722;2023-02-12T06:32:48;143888.19;;;3.85;47.56
6853;BME280;3465;42.144;24.722;2023-02-12T06:35:14;143886.94;;;3.85;47.57
6853;BME280;3465;42.144;24.722;2023-02-12T06:37:39;143905.59;;;3.92;47.55
6853;BME280;3465;42.144;24.722;2023-02-12T06:40:05;143863.28;;;3.75;47.49
6853;BME280;3465;42.144;24.722;2023-02-12T06:42:31;143961.63;;;4.15;47.27
6853;BME280;3465;42.144;24.722;2023-02-12T06:44:56;143972.81;;;4.19;47.64
6853;BME280;3465;42.144;24.722;2023-02-12T06:47:22;143967.88;;;4.17;47.53
6853;BME280;3465;42.144;24.722;2023-02-12T06:49:47;143997.72;;;4.29;47.83
6853;BME280;3465;42.144;24.722;2023-02-12T06:52:12;144011.44;;;4.35;47.58
6853;BME280;3465;42.144;24.722;2023-02-12T06:54:39;143945.44;;;4.08;47.28
6853;BME280;3465;42.144;24.722;2023-02-12T06:57:04;144076.16;;;4.61;47.41
6853;BME280;3465;42.144;24.722;2023-02-12T06:59:30;144083.63;;;4.64;47.45
6853;BME280;3465;42.144;24.722;2023-02-12T07:01:55;144096.09;;;4.69;47.54
6853;BME280;3465;42.144;24.722;2023-02-12T07:04:20;144076.16;;;4.61;48.00
6853;BME280;3465;42.144;24.722;2023-02-12T07:06:46;144121.03;;;4.79;48.02
6853;BME280;3465;42.144;24.722;2023-02-12T07:09:11;144124.75;;;4.81;48.25
6853;BME280;3465;42.144;24.722;2023-02-12T07:11:37;144109.81;;;4.75;48.74
6853;BME280;3465;42.144;24.722;2023-02-12T07:14:02;144154.69;;;4.93;49.25
6853;BME280;3465;42.144;24.722;2023-02-12T07:16:28;144189.56;;;5.07;48.96
6853;BME280;3465;42.144;24.722;2023-02-12T07:18:53;144203.22;;;5.12;48.94
6853;BME280;3465;42.144;24.722;2023-02-12T07:21:19;144203.22;;;5.12;49.39
6853;BME280;3465;42.144;24.722;2023-02-12T07:23:47;144199.50;;;5.11;49.34
6853;BME280;3465;42.144;24.722;2023-02-12T07:26:13;144234.41;;;5.25;49.13
6853;BME280;3465;42.144;24.722;2023-02-12T07:28:39;144285.53;;;5.45;48.70
6853;BME280;3465;42.144;24.722;2023-02-12T07:33:33;144306.72;;;5.54;48.88
6853;BME280;3465;42.144;24.722;2023-02-12T07:36:00;144314.19;;;5.57;48.50
6853;BME280;3465;42.144;24.722;2023-02-12T07:38:25;144321.66;;;5.60;48.60
6853;BME280;3465;42.144;24.722;2023-02-12T07:40:51;144321.66;;;5.60;48.74
6853;BME280;3465;42.144;24.722;2023-02-12T07:43:16;144309.19;;;5.55;49.04
6853;BME280;3465;42.144;24.722;2023-02-12T07:45:41;144304.19;;;5.53;48.87
6853;BME280;3465;42.144;24.722;2023-02-12T07:48:07;144307.94;;;5.54;48.66
6853;BME280;3465;42.144;24.722;2023-02-12T07:50:32;144332.88;;;5.64;48.72
6853;BME280;3465;42.144;24.722;2023-02-12T07:52:57;144350.34;;;5.71;48.71
6853;BME280;3465;42.144;24.722;2023-02-12T07:55:23;144377.81;;;5.82;48.79
6853;BME280;3465;42.144;24.722;2023-02-12T07:57:48;144409.00;;;5.95;48.06
6853;BME280;3465;42.144;24.722;2023-02-12T08:00:14;144463.84;;;6.17;47.96
6853;BME280;3465;42.144;24.722;2023-02-12T08:02:40;144507.50;;;6.35;47.30
6853;BME280;3465;42.144;24.722;2023-02-12T08:05:05;144513.78;;;6.37;47.41
6853;BME280;3465;42.144;24.722;2023-02-12T08:07:31;144563.66;;;6.57;47.20
6853;BME280;3465;42.144;24.722;2023-02-12T08:09:56;144522.47;;;6.41;47.43
6853;BME280;3465;42.144;24.722;2023-02-12T08:12:22;144511.25;;;6.36;47.46
6853;BME280;3465;42.144;24.722;2023-02-12T08:14:48;144485.06;;;6.26;47.85
6853;BME280;3465;42.144;24.722;2023-02-12T08:17:13;144510.03;;;6.36;48.12
6853;BME280;3465;42.144;24.722;2023-02-12T08:19:38;144482.56;;;6.25;48.23
6853;BME280;3465;42.144;24.722;2023-02-12T08:22:04;144437.69;;;6.07;48.70
6853;BME280;3465;42.144;24.722;2023-02-12T08:24:31;144461.38;;;6.16;49.65
6853;BME280;3465;42.144;24.722;2023-02-12T08:26:56;144452.66;;;6.13;49.71
6853;BME280;3465;42.144;24.722;2023-02-12T08:29:27;144455.13;;;6.14;50.28
6853;BME280;3465;42.144;24.722;2023-02-12T08:31:59;144446.44;;;6.10;50.92
6853;BME280;3465;42.144;24.722;2023-02-12T08:34:27;144428.94;;;6.03;52.54
6853;BME280;3465;42.144;24.722;2023-02-12T08:36:54;144420.22;;;6.00;53.33
6853;BME280;3465;42.144;24.722;2023-02-12T08:39:21;144468.84;;;6.19;53.65
6853;BME280;3465;42.144;24.722;2023-02-12T08:41:47;144528.75;;;6.43;53.75
6853;BME280;3465;42.144;24.722;2023-02-12T08:44:13;144587.38;;;6.67;54.09
6853;BME280;3465;42.144;24.722;2023-02-12T08:46:43;144715.94;;;7.18;52.97
6853;BME280;3465;42.144;24.722;2023-02-12T08:49:19;144857.06;;;7.75;51.74
6853;BME280;3465;42.144;24.722;2023-02-12T08:51:48;144905.81;;;7.95;51.43
6853;BME280;3465;42.144;24.722;2023-02-12T08:54:17;144823.31;;;7.62;52.07
6853;BME280;3465;42.144;24.722;2023-02-12T08:56:43;144749.69;;;7.32;53.38
6853;BME280;3465;42.144;24.722;2023-02-12T08:59:12;144698.44;;;7.11;53.98
6853;BME280;3465;42.144;24.722;2023-02-12T09:01:39;144695.97;;;7.10;54.41
6853;BME280;3465;42.144;24.722;2023-02-12T09:04:06;144638.53;;;6.87;54.63
6853;BME280;3465;42.144;24.722;2023-02-12T09:06:33;144591.09;;;6.68;55.09
6853;BME280;3465;42.144;24.722;2023-02-12T09:08:59;144614.81;;;6.78;55.39
6853;BME280;3465;42.144;24.722;2023-02-12T09:11:27;144619.81;;;6.80;55.38
6853;BME280;3465;42.144;24.722;2023-02-12T09:14:01;144608.59;;;6.75;55.58
6853;BME280;3465;42.144;24.722;2023-02-12T09:16:30;144628.56;;;6.83;55.92
6853;BME280;3465;42.144;24.722;2023-02-12T09:18:59;144576.16;;;6.62;56.40
6853;BME280;3465;42.144;24.722;2023-02-12T09:21:25;144582.38;;;6.65;56.26
6853;BME280;3465;42.144;24.722;2023-02-12T09:23:50;144677.25;;;7.03;56.10
6853;BME280;3465;42.144;24.722;2023-02-12T09:26:18;144758.38;;;7.36;55.63
6853;BME280;3465;42.144;24.722;2023-02-12T09:28:45;144795.84;;;7.51;54.91
6853;BME280;3465;42.144;24.722;2023-02-12T09:31:14;144795.84;;;7.51;54.80
6853;BME280;3465;42.144;24.722;2023-02-12T09:33:40;144788.38;;;7.48;54.35
6853;BME280;3465;42.144;24.722;2023-02-12T09:36:08;144804.59;;;7.54;54.83
6853;BME280;3465;42.144;24.722;2023-02-12T09:38:34;144840.84;;;7.69;54.60
6853;BME280;3465;42.144;24.722;2023-02-12T09:43:43;144893.31;;;7.90;53.65
6853;BME280;3465;42.144;24.722;2023-02-12T09:46:54;144860.81;;;7.77;53.70
6853;BME280;3465;42.144;24.722;2023-02-12T09:52:02;144865.81;;;7.79;53.67
6853;BME280;3465;42.144;24.722;2023-02-12T09:54:36;144989.56;;;8.28;52.52
6853;BME280;3465;42.144;24.722;2023-02-12T09:57:06;145067.03;;;8.59;51.56
6853;BME280;3465;42.144;24.722;2023-02-12T10:00:07;145288.41;;;9.48;49.57
6853;BME280;3465;42.144;24.722;2023-02-12T10:02:38;145494.94;;;10.31;46.61
6853;BME280;3465;42.144;24.722;2023-02-12T10:05:27;145676.53;;;11.04;44.03
6853;BME280;3465;42.144;24.722;2023-02-12T10:08:24;145831.97;;;11.66;43.20
6853;BME280;3465;42.144;24.722;2023-02-12T10:21:11;146010.03;;;12.37;39.20
6853;BME280;3465;42.144;24.722;2023-02-12T10:26:23;146283.66;;;13.47;37.65
6853;BME280;3465;42.144;24.722;2023-02-12T10:28:51;146263.56;;;13.39;36.67
6853;BME280;3465;42.144;24.722;2023-02-12T10:31:35;146381.56;;;13.86;36.54
6853;BME280;3465;42.144;24.722;2023-02-12T10:34:17;146561.28;;;14.58;35.60
6853;BME280;3465;42.144;24.722;2023-02-12T10:36:46;146886.97;;;15.88;34.39
6853;BME280;3465;42.144;24.722;2023-02-12T10:39:22;146924.69;;;16.03;33.98
6853;BME280;3465;42.144;24.722;2023-02-12T10:44:23;146474.50;;;14.23;36.43
6853;BME280;3465;42.144;24.722;2023-02-12T10:46:48;146155.59;;;12.95;38.45
6853;BME280;3465;42.144;24.722;2023-02-12T10:49:16;145978.69;;;12.25;39.74
6853;BME280;3465;42.144;24.722;2023-02-12T10:52:29;145847.06;;;11.72;40.37
6853;BME280;3465;42.144;24.722;2023-02-12T10:54:47;145652.75;;;10.94;42.06
6853;BME280;3465;42.144;24.722;2023-02-12T10:57:21;145741.72;;;11.30;41.57
6853;BME280;3465;42.144;24.722;2023-02-12T10:59:49;145825.72;;;11.64;40.24
6853;BME280;3465;42.144;24.722;2023-02-12T11:02:18;145789.31;;;11.49;40.92
6853;BME280;3465;42.144;24.722;2023-02-12T11:04:45;145834.50;;;11.67;40.71
6853;BME280;3465;42.144;24.722;2023-02-12T11:07:10;145944.81;;;12.11;39.47
6853;BME280;3465;42.144;24.722;2023-02-12T11:09:47;145939.78;;;12.09;39.83
6853;BME280;3465;42.144;24.722;2023-02-12T11:12:35;146028.84;;;12.45;39.31
6853;BME280;3465;42.144;24.722;2023-02-12T11:15:13;146125.44;;;12.83;38.34
6853;BME280;3465;42.144;24.722;2023-02-12T11:17:41;146194.53;;;13.11;38.56
6853;BME280;3465;42.144;24.722;2023-02-12T11:25:17;146703.28;;;15.14;34.36
6853;BME280;3465;42.144;24.722;2023-02-12T11:27:43;146648.00;;;14.92;34.12
6853;BME280;3465;42.144;24.722;2023-02-12T11:30:17;146434.31;;;14.07;35.97
6853;BME280;3465;42.144;24.722;2023-02-12T11:32:42;146451.94;;;14.14;35.66
6853;BME280;3465;42.144;24.722;2023-02-12T11:35:17;146188.25;;;13.09;37.27
6853;BME280;3465;42.144;24.722;2023-02-12T11:37:50;146155.59;;;12.95;36.87
6853;BME280;3465;42.144;24.722;2023-02-12T11:40:26;145922.25;;;12.02;38.48
6853;BME280;3465;42.144;24.722;2023-02-12T11:43:01;145854.56;;;11.75;39.07
6853;BME280;3465;42.144;24.722;2023-02-12T11:45:36;145741.72;;;11.30;39.86
6853;BME280;3465;42.144;24.722;2023-02-12T11:48:33;145744.19;;;11.31;40.28
6853;BME280;3465;42.144;24.722;2023-02-12T11:51:02;145770.53;;;11.41;40.43
6853;BME280;3465;42.144;24.722;2023-02-12T11:53:31;145706.63;;;11.16;40.81
6853;BME280;3465;42.144;24.722;2023-02-12T11:56:01;145675.28;;;11.03;40.80
6853;BME280;3465;42.144;24.722;2023-02-12T11:58:27;145669.03;;;11.01;41.03
6853;BME280;3465;42.144;24.722;2023-02-12T12:04:03;145731.66;;;11.26;41.14
6853;BME280;3465;42.144;24.722;2023-02-12T12:06:34;145726.69;;;11.24;41.62
6853;BME280;3465;42.144;24.722;2023-02-12T12:09:26;145769.28;;;11.41;41.18
6853;BME280;3465;42.144;24.722;2023-02-12T12:17:36;145855.78;;;11.76;40.37
6853;BME280;3465;42.144;24.722;2023-02-12T12:20:26;145811.88;;;11.58;40.82
6853;BME280;3465;42.144;24.722;2023-02-12T12:25:39;145725.41;;;11.23;41.14
6853;BME280;3465;42.144;24.722;2023-02-12T12:28:31;145702.84;;;11.14;41.14
6853;BME280;3465;42.144;24.722;2023-02-12T12:33:46;145719.13;;;11.21;41.96
6853;BME280;3465;42.144;24.722;2023-02-12T12:39:05;145749.22;;;11.33;41.62
6853;BME280;3465;42.144;24.722;2023-02-12T12:55:53;145585.13;;;10.67;42.38
6853;BME280;3465;42.144;24.722;2023-02-12T13:14:44;145497.47;;;10.32;43.40
6853;BME280;3465;42.144;24.722;2023-02-12T13:17:37;145488.69;;;10.29;43.52
6853;BME280;3465;42.144;24.722;2023-02-12T13:20:16;145487.44;;;10.28;43.46
6853;BME280;3465;42.144;24.722;2023-02-12T13:22:51;145442.34;;;10.10;43.81
6853;BME280;3465;42.144;24.722;2023-02-12T13:25:25;145448.63;;;10.13;44.28
6853;BME280;3465;42.144;24.722;2023-02-12T13:27:54;145448.63;;;10.13;44.40
6853;BME280;3465;42.144;24.722;2023-02-12T13:30:28;145453.66;;;10.15;44.14
6853;BME280;3465;42.144;24.722;2023-02-12T13:35:27;145486.22;;;10.28;43.78
6853;BME280;3465;42.144;24.722;2023-02-12T13:37:54;145447.38;;;10.12;44.12
6853;BME280;3465;42.144;24.722;2023-02-12T13:40:22;145481.19;;;10.26;44.20
6853;BME280;3465;42.144;24.722;2023-02-12T13:45:38;145449.91;;;10.13;44.94
6853;BME280;3465;42.144;24.722;2023-02-12T13:48:23;145448.63;;;10.13;45.08
6853;BME280;3465;42.144;24.722;2023-02-12T13:51:18;145419.78;;;10.01;45.12
6853;BME280;3465;42.144;24.722;2023-02-12T13:54:08;145414.75;;;9.99;45.32
6853;BME280;3465;42.144;24.722;2023-02-12T13:56:59;145403.50;;;9.94;45.16
6853;BME280;3465;42.144;24.722;2023-02-12T14:02:04;145396.00;;;9.91;45.91
6853;BME280;3465;42.144;24.722;2023-02-12T14:04:35;145387.25;;;9.88;45.89
6853;BME280;3465;42.144;24.722;2023-02-12T14:07:09;145383.50;;;9.86;45.83
6853;BME280;3465;42.144;24.722;2023-02-12T14:09:43;145339.69;;;9.69;45.42
6853;BME280;3465;42.144;24.722;2023-02-12T14:12:16;145359.72;;;9.77;46.23
6853;BME280;3465;42.144;24.722;2023-02-12T14:14:55;145345.97;;;9.71;47.03
6853;BME280;3465;42.144;24.722;2023-02-12T14:20:20;145315.91;;;9.59;48.18
6853;BME280;3465;42.144;24.722;2023-02-12T14:28:17;145320.94;;;9.61;48.41
6853;BME280;3465;42.144;24.722;2023-02-12T14:30:45;145328.44;;;9.64;48.39
6853;BME280;3465;42.144;24.722;2023-02-12T14:33:30;145273.41;;;9.42;48.81
6853;BME280;3465;42.144;24.722;2023-02-12T14:39:25;145317.19;;;9.60;49.20
6853;BME280;3465;42.144;24.722;2023-02-12T14:41:49;145313.44;;;9.58;49.05
6853;BME280;3465;42.144;24.722;2023-02-12T14:46:48;145265.91;;;9.39;49.72
6853;BME280;3465;42.144;24.722;2023-02-12T14:52:01;145219.59;;;9.21;50.19
6853;BME280;3465;42.144;24.722;2023-02-12T14:54:53;145218.31;;;9.20;50.36
6853;BME280;3465;42.144;24.722;2023-02-12T14:57:37;145188.34;;;9.08;50.72
6853;BME280;3465;42.144;24.722;2023-02-12T15:00:20;145160.81;;;8.97;50.88
6853;BME280;3465;42.144;24.722;2023-02-12T15:03:11;145160.81;;;8.97;51.25
6853;BME280;3465;42.144;24.722;2023-02-12T15:08:39;145165.84;;;8.99;51.45
6853;BME280;3465;42.144;24.722;2023-02-12T15:11:13;145128.31;;;8.84;51.76
6853;BME280;3465;42.144;24.722;2023-02-12T15:16:16;145123.28;;;8.82;52.06
6853;BME280;3465;42.144;24.722;2023-02-12T15:21:31;145085.81;;;8.67;52.68
6853;BME280;3465;42.144;24.722;2023-02-12T15:24:04;145087.03;;;8.67;53.09
6853;BME280;3465;42.144;24.722;2023-02-12T15:26:33;145045.81;;;8.51;53.35
6853;BME280;3465;42.144;24.722;2023-02-12T15:29:01;145054.53;;;8.54;53.35
6853;BME280;3465;42.144;24.722;2023-02-12T15:31:29;145063.28;;;8.58;53.12
6853;BME280;3465;42.144;24.722;2023-02-12T15:33:57;145034.53;;;8.46;53.79
6853;BME280;3465;42.144;24.722;2023-02-12T15:36:26;145029.56;;;8.44;53.82
6853;BME280;3465;42.144;24.722;2023-02-12T15:38:56;145033.31;;;8.46;54.15
6853;BME280;3465;42.144;24.722;2023-02-12T15:41:41;145008.31;;;8.36;54.40
6853;BME280;3465;42.144;24.722;2023-02-12T15:44:24;144995.78;;;8.31;54.59
6853;BME280;3465;42.144;24.722;2023-02-12T15:47:13;144974.47;;;8.22;55.04
6853;BME280;3465;42.144;24.722;2023-02-12T15:49:41;144937.03;;;8.07;55.71
6853;BME280;3465;42.144;24.722;2023-02-12T15:52:14;144963.25;;;8.18;55.40
6853;BME280;3465;42.144;24.722;2023-02-12T15:54:43;144939.50;;;8.08;55.93
6853;BME280;3465;42.144;24.722;2023-02-12T15:57:10;144959.50;;;8.16;55.98
6853;BME280;3465;42.144;24.722;2023-02-12T15:59:36;144945.78;;;8.11;56.00
6853;BME280;3465;42.144;24.722;2023-02-12T16:02:02;144920.78;;;8.01;56.07